Portada
METAR-TAF:

METAR-TAF

Aeroports :

Qaisumah, Aràbia Saudita

latitud: 28-19N, longitud: 046-07E, altitud: 358 m

Observació

L'informe es va fer fa 1 hora i 5 minuts, a les 10:00 UTC
Vent 6 kt del Sud/Sud-Oest
Temperatura 48°C
Humitat 5%
Pressió 1001 hPa
Visibilitat 10 km o més
sense núvols per sota de 1500 mi sense presència de cumulonimbus.

METAR: OEPA 231000Z 20006KT CAVOK 48/M01 Q1001 NOSIG

Hora: 14:05 (11:05 UTC)

Pronòstic

L'informe es va fer fa 13 hores i 5 minuts, a les 22:00 UTC
Pronòstic vàlid del 23 a les 00 UTC al 24 a les 06 UTC
Vent 10 kt del Oest
Visibilitat 10 km o més
sense núvols per sota de 1500 mi sense presència de cumulonimbus.
Evolucionant progressivament
l' 23 a les 10 UTC al 23 a les 12 UTC
Vent 8 kt del Est
Evolucionant progressivament
l' 23 a les 23 UTC al 24 a les 01 UTC
Vent 14 kt del Nord

TAF: OEPA 222200Z 2300/2406 27010KT CAVOK BECMG 2310/2312 10008KT BECMG 2323/2401 36014KT

Observacions i pronòstics meteorològics de més de 4000 aeroports (METAR i TAF).

Les estacions disponibles són els punts grocs i vermells al mapa.

Posi el ratolí al punt desitjat per veure el nom de l'estació.

Feu clic per veure les observacions i els pronòstics meteorològics.

Per canviar el mapa: feu clic els botons verds amb una creu de color negre per apropar; al botó verd amb un guió per allunyar la imatge; o en les fletxes verdes per a mapes adjacents.


METAR-TAF: